Time;durP1;ratioP1;P1;durP2;ratioP2;P2;SDS_P1;SDS_P2;PMS_P1;PMS_P2;Temp;Humidity;BMP_temperature;BMP_pressure;BME280_temperature;BME280_humidity;BME280_pressure;Samples;Min_cycle;Max_cycle;Signal;HPM_P1;HPM_P2
2021/12/07 00:00:17;;;;;;;43.40;33.72;;;;;;;-0.44;100.00;98587.38;2078288;28;20690;-75
2021/12/07 00:01:20;;;;;;;42.30;33.00;;;;;;;-0.45;100.00;98581.34;2071076;28;20661;-74
2021/12/07 00:02:21;;;;;;;47.83;35.42;;;;;;;-0.46;100.00;98594.69;2078538;28;20248;-75
2021/12/07 00:03:23;;;;;;;40.30;33.30;;;;;;;-0.43;100.00;98589.00;2078820;28;20227;-76
2021/12/07 00:04:25;;;;;;;43.33;35.78;;;;;;;-0.44;100.00;98590.00;2078266;28;20223;-75
2021/12/07 00:05:26;;;;;;;43.13;35.65;;;;;;;-0.47;100.00;98580.00;2078277;28;20223;-75
2021/12/07 00:06:28;;;;;;;42.72;35.80;;;;;;;-0.48;100.00;98583.66;2077722;28;20278;-75
2021/12/07 00:07:30;;;;;;;44.55;34.58;;;;;;;-0.43;100.00;98579.31;2078575;28;20223;-75
2021/12/07 00:08:32;;;;;;;44.75;35.15;;;;;;;-0.43;100.00;98571.44;2078349;28;20601;-75
2021/12/07 00:09:36;;;;;;;45.78;35.55;;;;;;;-0.45;100.00;98578.72;2078368;28;20227;-75
2021/12/07 00:10:38;;;;;;;44.75;35.17;;;;;;;-0.41;100.00;98573.81;2063990;28;20220;-76
2021/12/07 00:11:40;;;;;;;44.17;34.08;;;;;;;-0.35;100.00;98565.00;2063886;28;20588;-75
2021/12/07 00:12:44;;;;;;;45.00;33.10;;;;;;;-0.38;100.00;98566.28;2072237;28;20239;-75
2021/12/07 00:13:47;;;;;;;44.63;33.28;;;;;;;-0.43;100.00;98555.72;2070132;28;20602;-75
2021/12/07 00:14:48;;;;;;;43.67;33.53;;;;;;;-0.46;100.00;98553.56;2062289;28;20330;-75
2021/12/07 00:15:51;;;;;;;44.33;33.53;;;;;;;-0.39;100.00;98556.03;2070134;28;20223;-75
2021/12/07 00:16:55;;;;;;;43.63;33.47;;;;;;;-0.42;100.00;98556.53;2076805;28;20476;-75
2021/12/07 00:17:56;;;;;;;44.70;34.90;;;;;;;-0.45;100.00;98559.59;2078440;28;20250;-75
2021/12/07 00:18:58;;;;;;;44.97;35.65;;;;;;;-0.49;100.00;98548.00;2078352;28;20724;-75
2021/12/07 00:20:00;;;;;;;43.28;36.03;;;;;;;-0.45;100.00;98552.53;2079003;28;20678;-75
2021/12/07 00:21:02;;;;;;;42.42;35.47;;;;;;;-0.44;100.00;98555.94;2079057;28;20234;-75
2021/12/07 00:22:08;;;;;;;41.63;34.10;;;;;;;-0.33;100.00;98563.75;2078101;28;20220;-75
2021/12/07 00:23:17;;;;;;;41.38;35.20;;;;;;;-0.37;100.00;98561.81;2069830;28;20235;-75
2021/12/07 00:24:19;;;;;;;42.60;33.35;;;;;;;-0.44;100.00;98561.97;2071285;28;20307;-75
2021/12/07 00:25:20;;;;;;;47.70;34.88;;;;;;;-0.42;100.00;98562.56;2078121;28;20223;-75
2021/12/07 00:26:23;;;;;;;44.85;36.42;;;;;;;-0.43;100.00;98562.78;2069938;28;20228;-74
2021/12/07 00:27:24;;;;;;;45.30;35.50;;;;;;;-0.45;100.00;98560.38;2077581;28;20230;-75
2021/12/07 00:28:26;;;;;;;45.80;35.43;;;;;;;-0.45;100.00;98567.44;2078033;28;20720;-75
2021/12/07 00:29:30;;;;;;;42.00;33.45;;;;;;;-0.41;100.00;98565.97;2078123;28;20241;-74
2021/12/07 00:30:34;;;;;;;43.85;34.25;;;;;;;-0.38;100.00;98568.09;2070315;28;20227;-75
2021/12/07 00:31:39;;;;;;;46.50;34.80;;;;;;;-0.34;100.00;98572.66;2070555;28;20228;-75
2021/12/07 00:32:46;;;;;;;42.45;33.13;;;;;;;-0.34;100.00;98571.84;2070231;28;20646;-75
2021/12/07 00:33:54;;;;;;;41.25;33.78;;;;;;;-0.30;100.00;98572.94;2077978;28;20218;-75
2021/12/07 00:35:18;;;;;;;44.05;33.03;;;;;;;-0.32;100.00;98569.78;2078609;28;20235;-75
2021/12/07 00:36:20;;;;;;;43.67;32.88;;;;;;;-0.37;100.00;98570.47;2078611;28;20227;-75
2021/12/07 00:37:22;;;;;;;42.33;34.60;;;;;;;-0.42;100.00;98569.63;2078771;28;20800;-75
2021/12/07 00:38:26;;;;;;;44.08;34.92;;;;;;;-0.46;100.00;98558.81;2078468;28;20219;-75
2021/12/07 00:39:28;;;;;;;42.70;34.40;;;;;;;-0.46;100.00;98558.00;2077809;28;20238;-75
2021/12/07 00:40:30;;;;;;;39.42;32.90;;;;;;;-0.18;100.00;98568.41;2078115;28;20247;-75
2021/12/07 00:41:31;;;;;;;41.35;31.88;;;;;;;-0.11;100.00;98566.44;2078100;28;20219;-75
2021/12/07 00:42:33;;;;;;;38.78;32.42;;;;;;;0.03;100.00;98560.88;2078218;28;20322;-75
2021/12/07 00:43:35;;;;;;;36.78;29.58;;;;;;;0.03;100.00;98566.94;2078896;28;20231;-75
2021/12/07 00:44:39;;;;;;;31.75;28.33;;;;;;;-0.05;100.00;98562.09;2078739;28;20234;-75
2021/12/07 00:45:45;;;;;;;36.67;31.17;;;;;;;-0.08;100.00;98559.94;2077398;28;20231;-76
2021/12/07 00:46:47;;;;;;;31.10;27.10;;;;;;;-0.06;100.00;98558.66;2078362;28;20273;-76
2021/12/07 00:47:51;;;;;;;33.65;29.40;;;;;;;-0.16;100.00;98548.03;2078145;28;20227;-75
2021/12/07 00:48:53;;;;;;;34.40;29.95;;;;;;;-0.29;100.00;98550.94;2077755;28;20587;-77
2021/12/07 00:49:54;;;;;;;39.78;35.67;;;;;;;-0.29;100.00;98556.19;2078817;28;20676;-76
2021/12/07 00:51:00;;;;;;;41.13;36.92;;;;;;;-0.33;100.00;98557.72;2077797;28;20648;-76
2021/12/07 00:52:01;;;;;;;39.70;35.60;;;;;;;-0.41;100.00;98558.91;2078242;28;20635;-76
2021/12/07 00:53:05;;;;;;;42.45;37.35;;;;;;;-0.31;100.00;98566.13;2078811;28;20230;-76
2021/12/07 00:54:07;;;;;;;41.47;35.42;;;;;;;-0.32;100.00;98564.53;2077995;28;20697;-76
2021/12/07 00:55:13;;;;;;;41.17;36.10;;;;;;;-0.40;100.00;98567.56;2069865;28;20322;-76
2021/12/07 00:56:15;;;;;;;40.70;34.15;;;;;;;-0.45;100.00;98556.97;2078159;28;20623;-75
2021/12/07 00:57:17;;;;;;;41.63;37.17;;;;;;;-0.48;100.00;98563.50;2078074;28;20230;-76
2021/12/07 00:58:23;;;;;;;40.05;35.38;;;;;;;-0.48;100.00;98560.88;2069785;28;20216;-76
2021/12/07 00:59:27;;;;;;;38.47;34.35;;;;;;;-0.52;100.00;98559.75;2070345;28;20251;-76
2021/12/07 01:00:30;;;;;;;38.28;34.05;;;;;;;-0.54;100.00;98561.00;2069875;28;20332;-76
2021/12/07 01:01:33;;;;;;;39.65;34.92;;;;;;;-0.57;100.00;98557.03;2078066;28;20677;-76
2021/12/07 01:02:34;;;;;;;37.55;33.22;;;;;;;-0.52;100.00;98551.09;2070046;28;20235;-76
2021/12/07 01:03:36;;;;;;;42.45;32.97;;;;;;;-0.53;100.00;98563.38;2069873;28;20224;-76
2021/12/07 01:04:50;;;;;;;38.88;33.95;;;;;;;-0.53;100.00;98568.63;2069378;28;20224;-76
2021/12/07 01:06:03;;;;;;;38.65;33.97;;;;;;;-0.54;100.00;98564.41;2071512;28;20619;-76
2021/12/07 01:07:17;;;;;;;37.38;33.13;;;;;;;-0.57;100.00;98563.06;2071352;28;20223;-76
2021/12/07 01:08:38;;;;;;;40.53;33.67;;;;;;;-0.42;100.00;98564.38;2077893;28;20219;-76
2021/12/07 01:24:38;;;;;;;40.47;34.35;;;;;;;-0.43;100.00;98560.19;2077444;28;20233;-76
2021/12/07 01:24:43;;;;;;;39.30;31.83;;;;;;;-0.53;100.00;98547.66;2077107;28;20342;-76
2021/12/07 01:25:45;;;;;;;40.58;34.15;;;;;;;-0.50;100.00;98556.91;2073591;28;20223;-76
2021/12/07 01:26:50;;;;;;;38.67;32.85;;;;;;;-0.58;100.00;98550.22;2079661;28;20223;-76
2021/12/07 01:27:55;;;;;;;41.58;33.67;;;;;;;-0.57;100.00;98547.34;2080414;28;20550;-76
2021/12/07 01:28:56;;;;;;;42.67;35.25;;;;;;;-0.62;100.00;98549.88;2073348;28;20303;-76
2021/12/07 01:30:07;;;;;;;40.58;34.40;;;;;;;-0.63;100.00;98553.53;2071407;28;20231;-76
2021/12/07 01:31:16;;;;;;;43.15;34.13;;;;;;;-0.59;100.00;98556.50;2077243;28;20227;-76
2021/12/07 01:32:37;;;;;;;41.65;34.35;;;;;;;-0.59;100.00;98557.28;2072239;28;20381;-76
2021/12/07 01:34:00;;;;;;;41.25;34.90;;;;;;;-0.62;100.00;98557.72;2073039;28;20239;-76
2021/12/07 01:35:37;;;;;;;43.47;35.00;;;;;;;-0.62;100.00;98560.34;2074168;28;20237;-76
2021/12/07 01:36:52;;;;;;;42.30;36.50;;;;;;;-0.59;100.00;98552.03;2068970;28;20227;-76
2021/12/07 01:38:06;;;;;;;39.95;35.70;;;;;;;-0.53;100.00;98554.72;2071018;28;20581;-76
2021/12/07 01:40:42;;;;;;;42.42;35.55;;;;;;;-0.65;100.00;98544.31;2078947;28;20247;-76
2021/12/07 01:44:41;;;;;;;42.95;36.50;;;;;;;-0.65;100.00;98547.75;2065772;28;20591;-76
2021/12/07 01:46:10;;;;;;;45.35;34.55;;;;;;;-0.64;100.00;98551.94;2067920;28;20268;-76
2021/12/07 01:47:28;;;;;;;41.58;34.22;;;;;;;-0.62;100.00;98539.41;2077708;28;20649;-76
2021/12/07 01:52:55;;;;;;;42.83;33.95;;;;;;;-0.62;100.00;98536.78;2068260;28;20639;-76
2021/12/07 02:00:34;;;;;;;43.30;32.60;;;;;;;-0.57;100.00;98515.91;2073075;28;20227;-76
2021/12/07 02:01:34;;;;;;;46.85;34.10;;;;;;;-0.58;100.00;98529.25;2071724;28;20263;-76
2021/12/07 02:02:36;;;;;;;40.40;33.60;;;;;;;-0.59;100.00;98536.31;2079441;28;20227;-75
2021/12/07 02:03:39;;;;;;;42.95;35.28;;;;;;;-0.59;100.00;98532.91;2078940;28;20751;-76
2021/12/07 02:04:42;;;;;;;40.05;32.35;;;;;;;-0.63;100.00;98527.34;2071306;28;20224;-76
2021/12/07 02:05:47;;;;;;;46.75;33.40;;;;;;;-0.50;100.00;98531.50;2071577;28;20686;-76
2021/12/07 02:06:50;;;;;;;45.15;34.60;;;;;;;-0.43;100.00;98536.59;2071565;28;20220;-76
2021/12/07 02:07:51;;;;;;;45.17;33.67;;;;;;;-0.53;100.00;98531.16;2079314;28;20219;-76
2021/12/07 02:08:54;;;;;;;43.80;34.33;;;;;;;-0.50;100.00;98530.69;2070904;28;20230;-76
2021/12/07 02:10:02;;;;;;;43.55;33.63;;;;;;;-0.45;100.00;98544.66;2070871;28;20588;-76
2021/12/07 02:11:05;;;;;;;43.15;34.25;;;;;;;-0.38;100.00;98528.78;2079225;28;20274;-75
2021/12/07 02:12:08;;;;;;;43.60;35.58;;;;;;;-0.34;100.00;98535.16;2071257;28;20215;-75
2021/12/07 02:13:22;;;;;;;41.20;34.10;;;;;;;-0.42;100.00;98528.47;2070712;28;20223;-76
2021/12/07 02:14:24;;;;;;;46.90;35.17;;;;;;;-0.47;100.00;98532.84;2072528;28;20754;-76
2021/12/07 02:15:28;;;;;;;49.45;36.38;;;;;;;-0.54;100.00;98530.38;2071182;28;20224;-76
2021/12/07 02:16:30;;;;;;;45.45;35.78;;;;;;;-0.55;100.00;98525.38;2079194;28;20219;-76
2021/12/07 02:17:35;;;;;;;40.72;35.45;;;;;;;-0.30;100.00;98531.03;2079976;28;20228;-76
2021/12/07 02:18:36;;;;;;;45.50;37.00;;;;;;;-0.25;100.00;98532.94;2079204;28;20614;-76
2021/12/07 02:19:40;;;;;;;48.03;38.53;;;;;;;-0.33;100.00;98536.75;2070533;28;20311;-76
2021/12/07 02:20:48;;;;;;;47.25;37.30;;;;;;;-0.42;100.00;98525.88;2071289;28;20228;-76
2021/12/07 02:21:51;;;;;;;48.50;35.72;;;;;;;-0.49;100.00;98527.03;2071898;28;20732;-76
2021/12/07 02:22:59;;;;;;;46.10;35.70;;;;;;;-0.42;100.00;98532.94;2078470;28;20220;-76
2021/12/07 02:24:00;;;;;;;44.20;35.55;;;;;;;-0.52;100.00;98535.34;2071143;28;20281;-76
2021/12/07 02:25:06;;;;;;;41.30;33.42;;;;;;;-0.41;100.00;98531.91;2079224;28;20227;-75
2021/12/07 02:26:06;;;;;;;44.97;34.33;;;;;;;-0.31;100.00;98537.31;2079312;28;20219;-75
2021/12/07 02:27:08;;;;;;;47.20;35.80;;;;;;;-0.34;100.00;98532.53;2072420;28;20224;-77
2021/12/07 02:28:13;;;;;;;49.10;36.72;;;;;;;-0.31;100.00;98539.91;2062855;28;20231;-76
2021/12/07 02:29:16;;;;;;;44.67;33.92;;;;;;;-0.36;100.00;98530.13;2062121;28;20651;-75
2021/12/07 02:30:20;;;;;;;50.67;36.38;;;;;;;-0.44;100.00;98537.59;2062542;28;20248;-75
2021/12/07 02:31:22;;;;;;;50.28;37.30;;;;;;;-0.41;100.00;98534.50;2071108;28;20266;-75
2021/12/07 02:32:23;;;;;;;45.97;36.13;;;;;;;-0.45;100.00;98543.88;2070533;28;20787;-76
2021/12/07 02:33:25;;;;;;;50.97;38.65;;;;;;;-0.45;100.00;98544.66;2078941;28;20641;-76
2021/12/07 02:34:27;;;;;;;53.88;37.13;;;;;;;-0.40;100.00;98541.34;2079085;28;20729;-75
2021/12/07 02:35:29;;;;;;;49.78;36.85;;;;;;;-0.50;100.00;98534.13;2079102;28;20224;-76
2021/12/07 02:36:36;;;;;;;48.63;36.95;;;;;;;-0.31;100.00;98550.41;2071343;28;20650;-75
2021/12/07 02:37:38;;;;;;;51.33;37.15;;;;;;;-0.37;100.00;98538.25;2070616;28;20286;-76
2021/12/07 02:38:41;;;;;;;50.60;36.75;;;;;;;-0.37;100.00;98530.38;2071024;28;20247;-76
2021/12/07 02:39:44;;;;;;;57.10;39.95;;;;;;;-0.43;100.00;98540.00;2079162;28;20258;-75
2021/12/07 02:40:48;;;;;;;55.63;39.38;;;;;;;-0.44;100.00;98541.00;2071053;28;20240;-76
2021/12/07 02:41:51;;;;;;;52.78;38.03;;;;;;;-0.54;100.00;98540.84;2071109;28;20220;-76
2021/12/07 02:42:53;;;;;;;50.65;37.90;;;;;;;-0.60;100.00;98545.22;2078475;28;20234;-77
2021/12/07 02:43:54;;;;;;;52.30;35.92;;;;;;;-0.53;100.00;98539.00;2070706;28;20231;-76
2021/12/07 02:44:56;;;;;;;54.30;39.07;;;;;;;-0.48;100.00;98536.50;2070862;28;20750;-76
2021/12/07 02:45:57;;;;;;;53.47;35.78;;;;;;;-0.37;100.00;98540.84;2079033;28;20706;-75
2021/12/07 02:46:59;;;;;;;50.80;35.75;;;;;;;-0.41;100.00;98535.31;2079783;28;20697;-75
2021/12/07 02:48:00;;;;;;;54.42;37.45;;;;;;;-0.48;100.00;98532.03;2078912;28;20219;-75
2021/12/07 02:49:03;;;;;;;56.90;38.20;;;;;;;-0.33;100.00;98534.91;2070980;28;20228;-76
2021/12/07 02:50:07;;;;;;;52.60;36.67;;;;;;;-0.34;100.00;98530.72;2071404;28;20886;-76
2021/12/07 02:51:09;;;;;;;54.85;36.97;;;;;;;-0.37;100.00;98527.75;2078442;28;20231;-76
2021/12/07 02:52:12;;;;;;;54.53;38.67;;;;;;;-0.50;100.00;98520.22;2079615;28;20226;-76
2021/12/07 02:53:15;;;;;;;53.05;39.35;;;;;;;-0.54;100.00;98521.72;2079029;28;20735;-75
2021/12/07 02:54:17;;;;;;;55.28;38.10;;;;;;;-0.57;100.00;98520.38;2070776;28;20219;-75
2021/12/07 02:55:21;;;;;;;57.88;39.10;;;;;;;-0.59;100.00;98525.84;2079097;28;20226;-75
2021/12/07 02:56:24;;;;;;;53.13;37.70;;;;;;;-0.64;100.00;98524.97;2070758;28;20362;-75
2021/12/07 02:57:26;;;;;;;62.08;39.00;;;;;;;-0.68;100.00;98529.88;2070904;28;20232;-76
2021/12/07 02:58:29;;;;;;;55.60;39.05;;;;;;;-0.60;100.00;98529.50;2070835;28;20236;-75
2021/12/07 02:59:30;;;;;;;52.20;37.70;;;;;;;-0.47;100.00;98527.59;2070612;28;20220;-76
2021/12/07 03:00:40;;;;;;;52.38;37.47;;;;;;;-0.49;100.00;98532.28;2078720;28;20302;-76
2021/12/07 03:01:49;;;;;;;52.42;37.15;;;;;;;-0.51;100.00;98534.34;2078467;28;20231;-76
2021/12/07 03:02:56;;;;;;;54.50;37.15;;;;;;;-0.57;100.00;98525.59;2071451;28;20225;-75
2021/12/07 03:04:05;;;;;;;59.15;37.35;;;;;;;-0.54;100.00;98535.59;2078467;28;20278;-75
2021/12/07 03:05:21;;;;;;;54.50;37.40;;;;;;;-0.49;100.00;98529.66;2071370;28;20224;-76
2021/12/07 03:06:32;;;;;;;48.92;34.83;;;;;;;-0.33;100.00;98536.75;2071895;28;20224;-75
2021/12/07 03:07:47;;;;;;;50.45;36.85;;;;;;;-0.47;100.00;98532.84;2071866;28;20231;-75
2021/12/07 03:09:32;;;;;;;54.67;37.55;;;;;;;-0.58;100.00;98535.28;2078832;28;20288;-75
2021/12/07 03:26:37;;;;;;;60.85;39.60;;;;;;;-0.55;100.00;98559.44;2072704;28;20216;-75
2021/12/07 03:27:38;;;;;;;56.28;38.38;;;;;;;-0.54;100.00;98555.78;2070346;28;20224;-75
2021/12/07 03:28:45;;;;;;;57.45;38.55;;;;;;;-0.66;100.00;98548.78;2078586;28;20231;-75
2021/12/07 03:29:50;;;;;;;58.53;39.00;;;;;;;-0.66;100.00;98547.97;2070939;28;20608;-75
2021/12/07 03:30:53;;;;;;;57.13;39.05;;;;;;;-0.72;100.00;98551.53;2070711;28;20278;-76
2021/12/07 03:31:54;;;;;;;56.17;38.60;;;;;;;-0.72;100.00;98549.69;2070642;28;20675;-74
2021/12/07 03:32:56;;;;;;;56.63;38.67;;;;;;;-0.77;100.00;98554.88;2078708;28;20228;-73
2021/12/07 03:33:59;;;;;;;61.65;39.95;;;;;;;-0.78;100.00;98555.06;2078258;28;20558;-73
2021/12/07 03:35:04;;;;;;;57.05;39.03;;;;;;;-0.70;100.00;98552.09;2070962;28;20232;-73
2021/12/07 03:36:06;;;;;;;57.70;37.33;;;;;;;-0.78;100.00;98563.75;2070436;28;20240;-74
2021/12/07 03:37:08;;;;;;;58.13;38.90;;;;;;;-0.79;100.00;98567.38;2078072;28;20365;-74
2021/12/07 03:38:11;;;;;;;53.80;36.63;;;;;;;-0.84;100.00;98556.84;2070283;28;20315;-74
2021/12/07 03:39:13;;;;;;;56.47;38.15;;;;;;;-0.84;100.00;98566.50;2078554;28;20234;-74
2021/12/07 03:40:16;;;;;;;58.83;37.45;;;;;;;-0.86;100.00;98554.44;2078463;28;20226;-73
2021/12/07 03:41:18;;;;;;;63.25;38.55;;;;;;;-0.73;100.00;98561.22;2078675;28;20249;-74
2021/12/07 03:42:20;;;;;;;55.17;38.35;;;;;;;-0.75;100.00;98559.88;2079287;28;20242;-74
2021/12/07 03:43:22;;;;;;;54.97;39.40;;;;;;;-0.75;100.00;98557.25;2078467;28;20219;-73
2021/12/07 03:44:26;;;;;;;52.33;38.13;;;;;;;-0.78;100.00;98558.53;2069970;28;20666;-74
2021/12/07 03:45:27;;;;;;;55.05;37.55;;;;;;;-0.72;100.00;98552.31;2070418;28;20239;-73
2021/12/07 03:46:29;;;;;;;52.07;36.93;;;;;;;-0.67;100.00;98552.44;2078633;28;20217;-73
2021/12/07 03:47:30;;;;;;;51.38;36.15;;;;;;;-0.60;100.00;98555.69;2078567;28;20451;-73
2021/12/07 03:48:32;;;;;;;53.67;36.20;;;;;;;-0.64;100.00;98548.53;2078589;28;20227;-73
2021/12/07 03:49:33;;;;;;;50.38;35.40;;;;;;;-0.67;100.00;98557.66;2078497;28;20228;-74
2021/12/07 03:50:36;;;;;;;55.03;36.22;;;;;;;-0.66;100.00;98555.84;2070389;28;20264;-73
2021/12/07 03:51:38;;;;;;;53.08;38.78;;;;;;;-0.71;100.00;98551.28;2071799;28;20239;-74
2021/12/07 03:52:40;;;;;;;52.53;38.22;;;;;;;-0.73;100.00;98558.59;2062167;28;20244;-74
2021/12/07 03:53:42;;;;;;;55.03;38.05;;;;;;;-0.75;100.00;98562.50;2070404;28;20718;-73
2021/12/07 03:54:44;;;;;;;47.83;37.22;;;;;;;-0.78;100.00;98565.56;2070253;28;20300;-74
2021/12/07 03:55:46;;;;;;;51.08;40.50;;;;;;;-0.79;100.00;98570.00;2062328;28;20229;-73
2021/12/07 03:56:47;;;;;;;56.60;40.13;;;;;;;-0.76;100.00;98572.16;2070315;28;20224;-74
2021/12/07 03:57:50;;;;;;;56.30;39.30;;;;;;;-0.81;100.00;98566.81;2070183;28;20722;-74
2021/12/07 03:58:53;;;;;;;50.75;38.25;;;;;;;-0.76;100.00;98564.31;2066154;28;20228;-74
2021/12/07 03:59:56;;;;;;;48.20;36.15;;;;;;;-0.75;100.00;98565.09;2078049;28;20243;-74
2021/12/07 04:00:59;;;;;;;46.75;35.45;;;;;;;-0.54;100.00;98572.28;2078515;28;20219;-73
2021/12/07 04:02:01;;;;;;;49.97;36.40;;;;;;;-0.51;100.00;98563.97;2078528;28;20243;-74
2021/12/07 04:03:07;;;;;;;48.10;33.92;;;;;;;-0.50;100.00;98562.13;2070399;28;20583;-74
2021/12/07 04:04:09;;;;;;;46.15;34.15;;;;;;;-0.60;100.00;98560.16;2064212;28;20232;-75
2021/12/07 04:05:14;;;;;;;47.33;36.55;;;;;;;-0.60;100.00;98565.38;2062189;28;20359;-75
2021/12/07 04:06:16;;;;;;;51.00;36.22;;;;;;;-0.68;100.00;98558.69;2062603;28;20667;-74
2021/12/07 04:07:16;;;;;;;48.17;36.95;;;;;;;-0.70;100.00;98567.78;2062174;28;20239;-75
2021/12/07 04:08:21;;;;;;;46.83;35.90;;;;;;;-0.58;100.00;98560.69;2062136;28;20232;-74
2021/12/07 04:09:22;;;;;;;44.78;35.83;;;;;;;-0.41;100.00;98572.00;2068226;28;20921;-75
2021/12/07 04:10:26;;;;;;;43.35;34.13;;;;;;;-0.48;100.00;98570.56;2070239;28;20625;-75
2021/12/07 04:11:26;;;;;;;47.40;34.50;;;;;;;-0.40;100.00;98572.78;2078332;28;20234;-75
2021/12/07 04:12:28;;;;;;;45.77;35.77;;;;;;;-0.41;100.00;98565.97;2070190;28;20275;-75
2021/12/07 04:13:31;;;;;;;45.95;35.22;;;;;;;-0.58;100.00;98569.34;2078443;28;20309;-75
2021/12/07 04:14:33;;;;;;;48.08;35.50;;;;;;;-0.67;100.00;98568.16;2078201;28;20581;-75
2021/12/07 04:15:34;;;;;;;44.75;33.58;;;;;;;-0.71;100.00;98571.44;2069930;28;20228;-74
2021/12/07 04:16:36;;;;;;;44.60;34.35;;;;;;;-0.75;100.00;98579.00;2070114;28;20224;-75
2021/12/07 04:17:37;;;;;;;43.90;33.40;;;;;;;-0.80;100.00;98578.88;2069571;28;20324;-77
2021/12/07 04:18:39;;;;;;;47.35;34.30;;;;;;;-0.79;100.00;98577.84;2070110;28;20232;-75
2021/12/07 04:19:41;;;;;;;46.03;36.17;;;;;;;-0.66;100.00;98588.06;2070114;28;20232;-75
2021/12/07 04:20:45;;;;;;;48.78;36.55;;;;;;;-0.73;100.00;98582.16;2070154;28;20733;-75
2021/12/07 04:21:46;;;;;;;45.03;35.65;;;;;;;-0.82;100.00;98585.41;2070294;28;20345;-75
2021/12/07 04:22:49;;;;;;;48.43;35.67;;;;;;;-0.84;100.00;98590.09;2078408;28;20273;-75
2021/12/07 04:23:49;;;;;;;44.85;34.40;;;;;;;-0.75;100.00;98588.69;2079163;28;20231;-73
2021/12/07 04:24:51;;;;;;;44.30;34.37;;;;;;;-0.76;100.00;98585.25;2079049;28;20253;-74
2021/12/07 04:25:54;;;;;;;43.10;34.70;;;;;;;-0.47;100.00;98582.63;2078673;28;20587;-75
2021/12/07 04:26:56;;;;;;;46.22;35.28;;;;;;;-0.50;100.00;98581.28;2077846;28;20258;-75
2021/12/07 04:27:58;;;;;;;43.13;34.53;;;;;;;-0.47;100.00;98582.63;2078414;28;20231;-75
2021/12/07 04:28:59;;;;;;;46.83;35.40;;;;;;;-0.56;100.00;98579.59;2078921;28;20579;-75
2021/12/07 04:30:00;;;;;;;45.53;34.40;;;;;;;-0.45;100.00;98580.56;2078452;28;20253;-74
2021/12/07 04:31:01;;;;;;;45.15;34.83;;;;;;;-0.50;100.00;98581.28;2070471;28;20627;-74
2021/12/07 04:32:06;;;;;;;43.73;33.80;;;;;;;-0.53;100.00;98578.31;2078229;28;20223;-74
2021/12/07 04:33:09;;;;;;;42.90;34.40;;;;;;;-0.59;100.00;98580.06;2077670;28;20242;-76
2021/12/07 04:34:11;;;;;;;47.38;36.03;;;;;;;-0.57;100.00;98578.78;2070546;28;20278;-75
2021/12/07 04:35:12;;;;;;;48.15;36.13;;;;;;;-0.57;100.00;98578.78;2078213;28;21432;-74
2021/12/07 04:36:14;;;;;;;50.30;35.17;;;;;;;-0.60;100.00;98571.41;2078047;28;20255;-75
2021/12/07 04:37:15;;;;;;;50.50;34.20;;;;;;;-0.63;100.00;98574.50;2070330;28;20220;-75
2021/12/07 04:38:18;;;;;;;45.87;35.70;;;;;;;-0.62;100.00;98578.69;2078251;28;20277;-74
2021/12/07 04:39:20;;;;;;;43.70;35.17;;;;;;;-0.71;100.00;98574.88;2078511;28;20231;-74
2021/12/07 04:40:26;;;;;;;45.75;36.00;;;;;;;-0.66;100.00;98574.19;2070241;28;20231;-74
2021/12/07 04:41:32;;;;;;;46.92;36.05;;;;;;;-0.70;100.00;98575.66;2077789;28;20238;-75
2021/12/07 04:42:34;;;;;;;45.45;34.80;;;;;;;-0.59;100.00;98567.75;2078800;28;20227;-75
2021/12/07 04:43:37;;;;;;;48.20;35.63;;;;;;;-0.58;100.00;98571.19;2078168;28;20322;-75
2021/12/07 04:44:46;;;;;;;47.50;36.78;;;;;;;-0.68;100.00;98569.19;2077567;28;20266;-75
2021/12/07 04:45:57;;;;;;;45.85;36.60;;;;;;;-0.73;100.00;98571.69;2078137;28;20793;-75
2021/12/07 04:47:09;;;;;;;52.80;38.38;;;;;;;-0.84;100.00;98569.91;2077966;28;20228;-75
2021/12/07 04:48:34;;;;;;;46.42;36.65;;;;;;;-0.88;100.00;98580.06;2078527;28;20246;-75
2021/12/07 04:57:47;;;;;;;50.40;36.80;;;;;;;-0.97;100.00;98581.44;2078221;28;20230;-75
2021/12/07 04:58:49;;;;;;;47.70;35.95;;;;;;;-0.96;100.00;98585.66;2078784;28;20720;-75
2021/12/07 04:59:54;;;;;;;46.78;35.97;;;;;;;-0.93;100.00;98589.66;2077726;28;20227;-75
2021/12/07 05:00:55;;;;;;;51.80;37.25;;;;;;;-0.92;100.00;98591.25;2069801;28;20228;-75
2021/12/07 05:01:57;;;;;;;53.95;35.88;;;;;;;-0.82;100.00;98591.44;2078058;28;22448;-75
2021/12/07 05:03:03;;;;;;;55.70;36.88;;;;;;;-0.72;100.00;98581.13;2078767;28;20674;-75
2021/12/07 05:04:10;;;;;;;49.75;35.15;;;;;;;-0.71;100.00;98579.31;2077840;28;20597;-75
2021/12/07 05:05:14;;;;;;;53.35;35.65;;;;;;;-0.69;100.00;98585.94;2063783;28;20232;-75
2021/12/07 05:06:17;;;;;;;53.63;36.90;;;;;;;-0.56;100.00;98579.59;2063113;28;20227;-75
2021/12/07 05:07:25;;;;;;;55.13;37.13;;;;;;;-0.66;100.00;98584.66;2070028;28;20228;-75
2021/12/07 05:08:35;;;;;;;52.45;35.78;;;;;;;-0.61;100.00;98592.59;2071413;28;20231;-75
2021/12/07 05:10:09;;;;;;;53.28;36.78;;;;;;;-0.52;100.00;98583.34;2063058;28;20232;-75
2021/12/07 05:12:35;;;;;;;53.63;36.65;;;;;;;-0.58;100.00;98581.66;2061823;28;20680;-73
2021/12/07 05:13:50;;;;;;;56.65;36.40;;;;;;;-0.64;100.00;98593.06;2069980;28;20711;-73
2021/12/07 05:15:01;;;;;;;55.75;36.20;;;;;;;-0.76;100.00;98585.25;2071216;28;20289;-74
2021/12/07 05:16:24;;;;;;;54.63;36.72;;;;;;;-0.78;100.00;98592.56;2062817;28;20243;-73
2021/12/07 05:17:41;;;;;;;59.95;36.47;;;;;;;-0.73;100.00;98594.47;2067594;28;20306;-74
2021/12/07 05:19:03;;;;;;;61.50;35.97;;;;;;;-0.75;100.00;98597.31;2070445;28;20678;-73
2021/12/07 05:24:07;;;;;;;60.88;37.45;;;;;;;-0.76;100.00;98595.75;2070837;28;20293;-74
2021/12/07 05:25:36;;;;;;;55.67;37.30;;;;;;;-0.79;100.00;98596.19;2076525;28;20244;-74
2021/12/07 05:34:42;;;;;;;61.92;39.30;;;;;;;-0.43;100.00;98595.03;2075982;28;21357;-74
2021/12/07 05:38:22;;;;;;;62.88;39.85;;;;;;;-0.79;100.00;98585.72;2071244;28;20290;-75
2021/12/07 05:39:27;;;;;;;60.73;37.87;;;;;;;-0.73;100.00;98587.41;2069524;28;20255;-75
2021/12/07 05:40:30;;;;;;;61.13;36.92;;;;;;;-0.63;100.00;98584.97;2069688;28;20220;-75
2021/12/07 05:41:34;;;;;;;61.30;37.83;;;;;;;-0.72;100.00;98588.19;2069422;28;20224;-75
2021/12/07 05:42:38;;;;;;;61.30;36.85;;;;;;;-0.75;100.00;98581.63;2066218;28;20225;-74
2021/12/07 05:43:40;;;;;;;61.70;38.35;;;;;;;-0.76;100.00;98584.47;2071108;28;20224;-74
2021/12/07 05:44:43;;;;;;;68.32;39.13;;;;;;;-0.84;100.00;98587.47;2069529;28;20232;-74
2021/12/07 05:45:44;;;;;;;65.70;39.28;;;;;;;-0.77;100.00;98586.31;2069767;28;20220;-74
2021/12/07 05:46:45;;;;;;;64.10;39.55;;;;;;;-0.73;100.00;98579.56;2070501;28;20227;-72
2021/12/07 05:47:48;;;;;;;65.90;38.30;;;;;;;-0.81;100.00;98589.59;2070423;28;20224;-73
2021/12/07 05:48:49;;;;;;;64.00;38.10;;;;;;;-0.91;100.00;98582.34;2069524;28;20674;-73
2021/12/07 05:49:52;;;;;;;63.15;36.83;;;;;;;-0.76;100.00;98582.66;2069664;28;20230;-72
2021/12/07 05:50:54;;;;;;;67.07;39.08;;;;;;;-0.71;100.00;98579.31;2075834;28;20224;-73
2021/12/07 05:51:56;;;;;;;62.10;39.63;;;;;;;-0.82;100.00;98586.19;2078664;28;20227;-73
2021/12/07 05:52:58;;;;;;;64.43;39.38;;;;;;;-0.91;100.00;98587.59;2078579;28;20223;-73
2021/12/07 05:53:58;;;;;;;70.60;39.90;;;;;;;-0.99;100.00;98583.50;2078446;28;20231;-73
2021/12/07 05:55:00;;;;;;;65.97;38.07;;;;;;;-0.99;100.00;98582.72;2077561;28;20262;-74
2021/12/07 05:56:03;;;;;;;64.45;38.38;;;;;;;-0.92;100.00;98580.78;2077540;28;20229;-74
2021/12/07 05:57:05;;;;;;;64.93;39.10;;;;;;;-0.93;100.00;98585.22;2069745;28;20224;-74
2021/12/07 05:58:08;;;;;;;72.32;38.88;;;;;;;-0.93;100.00;98585.22;2077590;28;20215;-74
2021/12/07 05:59:08;;;;;;;68.32;39.33;;;;;;;-0.94;100.00;98588.84;2078064;28;20261;-74
2021/12/07 06:00:17;;;;;;;62.40;38.90;;;;;;;-0.94;100.00;98590.69;2077614;28;20254;-74
2021/12/07 06:01:18;;;;;;;63.92;40.00;;;;;;;-0.98;100.00;98582.47;2070090;28;20801;-74
2021/12/07 06:02:22;;;;;;;62.67;40.33;;;;;;;-0.80;100.00;98591.19;2077539;28;20624;-74
2021/12/07 06:03:23;;;;;;;67.88;38.08;;;;;;;-0.85;100.00;98589.28;2077918;28;20223;-74